Aviation Digital Data Service (ADDS)

Output produced by METARs form (0909 UTC 19 November 2018)
found at http://www.aviationweather.gov/metar/data/
 
RJFU 190900Z 36014KT 9999 FEW030 14/09 Q1019
TAF RJFU 190509Z 1906/2012 35012KT 9999 FEW030 BKN045 
     BECMG 1915/1917 14005KT 
     BECMG 2000/2003 35009KT 
     BECMG 2009/2012 14003KT